Time;durP1;ratioP1;P1;durP2;ratioP2;P2;SDS_P1;SDS_P2;PMS_P1;PMS_P2;Temp;Humidity;BMP_temperature;BMP_pressure;BME280_temperature;BME280_humidity;BME280_pressure;Samples;Min_cycle;Max_cycle;Signal;HPM_P1;HPM_P2
2021/04/29 00:01:54;;;;;;;3.60;2.03;;;205.10;2252.80;;;;;;5037920;28;20445;-71
2021/04/29 00:04:20;;;;;;;3.78;2.22;;;205.10;2252.80;;;;;;5037806;28;20025;-72
2021/04/29 00:06:45;;;;;;;4.65;1.92;;;205.10;2252.80;;;;;;5037826;28;20295;-70
2021/04/29 00:09:12;;;;;;;3.15;1.92;;;205.10;2252.80;;;;;;5037699;28;20030;-71
2021/04/29 00:11:38;;;;;;;3.35;1.98;;;205.10;2252.80;;;;;;5037933;28;20034;-74
2021/04/29 00:14:06;;;;;;;3.35;1.75;;;205.00;2252.80;;;;;;5037728;28;20326;-71
2021/04/29 00:16:32;;;;;;;3.00;2.00;;;205.00;2252.80;;;;;;5037094;28;20029;-73
2021/04/29 00:18:58;;;;;;;2.92;1.80;;;205.00;2252.80;;;;;;5037555;28;20033;-71
2021/04/29 00:21:24;;;;;;;3.70;2.30;;;205.00;2252.80;;;;;;5037219;28;20120;-73
2021/04/29 00:23:50;;;;;;;3.80;1.90;;;205.00;2252.80;;;;;;5037229;28;20057;-72
2021/04/29 00:26:16;;;;;;;3.50;2.28;;;205.00;2252.80;;;;;;5019995;28;20122;-71
2021/04/29 00:28:41;;;;;;;4.50;2.50;;;204.90;2252.80;;;;;;5037190;28;20033;-71
2021/04/29 00:31:07;;;;;;;3.55;2.60;;;204.90;2252.80;;;;;;5037602;28;20083;-72
2021/04/29 00:33:33;;;;;;;4.65;3.40;;;204.90;2252.80;;;;;;5036572;28;20032;-72
2021/04/29 00:36:01;;;;;;;4.25;2.85;;;204.90;2252.80;;;;;;5037579;28;20100;-72
2021/04/29 00:38:28;;;;;;;4.78;3.05;;;204.90;2252.80;;;;;;5037063;28;20049;-70
2021/04/29 00:40:54;;;;;;;5.70;3.65;;;204.80;2252.80;;;;;;5036987;28;20045;-71
2021/04/29 00:43:20;;;;;;;5.70;3.53;;;204.80;2252.80;;;;;;5037107;28;20033;-71
2021/04/29 00:45:46;;;;;;;5.25;3.25;;;204.80;2252.80;;;;;;5036680;28;20338;-70
2021/04/29 00:48:13;;;;;;;4.72;3.17;;;204.80;2252.80;;;;;;5037289;28;20049;-70
2021/04/29 00:50:39;;;;;;;4.35;3.10;;;180.10;2252.80;;;;;;5037130;28;20029;-70
2021/04/29 00:53:04;;;;;;;4.72;3.30;;;204.80;2252.80;;;;;;5036646;28;20082;-72
2021/04/29 00:55:30;;;;;;;4.30;3.05;;;180.10;2252.80;;;;;;5041454;28;20032;-70
2021/04/29 00:57:56;;;;;;;4.25;2.75;;;180.00;2252.80;;;;;;5043748;28;20029;-71
2021/04/29 01:00:22;;;;;;;5.38;3.88;;;180.10;2252.80;;;;;;5043759;28;20025;-70
2021/04/29 01:03:16;;;;;;;5.00;3.42;;;180.10;2252.80;;;;;;5043755;28;20044;-71
2021/04/29 01:05:56;;;;;;;5.53;3.28;;;180.10;2252.80;;;;;;5043721;28;20029;-71
2021/04/29 01:08:47;;;;;;;6.55;3.70;;;180.00;2252.80;;;;;;5043646;28;20032;-70
2021/04/29 01:11:18;;;;;;;5.78;3.35;;;180.00;2252.80;;;;;;5043883;28;20083;-72
2021/04/29 01:13:50;;;;;;;5.25;3.75;;;180.00;2252.80;;;;;;5043961;28;20036;-70
2021/04/29 01:16:18;;;;;;;4.95;3.33;;;180.00;2252.80;;;;;;5043590;28;20033;-73
2021/04/29 01:18:45;;;;;;;6.38;3.50;;;180.00;2252.80;;;;;;5043850;28;20026;-72
2021/04/29 01:21:15;;;;;;;4.97;3.65;;;180.00;2252.80;;;;;;5043160;28;20406;-72
2021/04/29 01:23:40;;;;;;;8.88;3.60;;;180.00;2252.80;;;;;;5043562;28;20157;-72
2021/04/29 01:26:32;;;;;;;6.43;3.28;;;180.00;2252.80;;;;;;5043153;28;20021;-71
2021/04/29 01:29:07;;;;;;;4.55;3.05;;;179.90;2252.80;;;;;;5043241;28;20018;-71
2021/04/29 01:31:35;;;;;;;4.78;3.35;;;179.90;2252.80;;;;;;5043107;28;20036;-71
2021/04/29 01:34:03;;;;;;;4.25;3.08;;;180.00;2252.80;;;;;;5043657;28;20021;-72
2021/04/29 01:36:30;;;;;;;5.13;3.33;;;180.00;2252.80;;;;;;5043439;28;20303;-70
2021/04/29 01:39:02;;;;;;;4.72;3.15;;;180.00;2252.80;;;;;;5043385;28;20300;-72
2021/04/29 01:41:28;;;;;;;5.13;4.05;;;179.90;2252.80;;;;;;5043415;28;20029;-72
2021/04/29 01:43:55;;;;;;;5.05;3.60;;;179.90;2252.80;;;;;;5043106;28;20104;-71
2021/04/29 01:46:21;;;;;;;7.07;3.70;;;180.00;2252.80;;;;;;5043360;28;20136;-72
2021/04/29 01:48:47;;;;;;;5.50;3.97;;;179.90;2252.80;;;;;;5043397;28;20026;-72
2021/04/29 01:51:13;;;;;;;5.65;4.05;;;179.90;2252.80;;;;;;5042690;28;20029;-71
2021/04/29 01:53:40;;;;;;;7.32;4.07;;;179.90;2252.80;;;;;;5043219;28;20025;-70
2021/04/29 01:56:06;;;;;;;6.68;3.92;;;179.90;2252.80;;;;;;5042978;28;20354;-73
2021/04/29 01:58:32;;;;;;;7.35;4.40;;;179.90;2252.80;;;;;;5042643;28;20048;-71
2021/04/29 02:01:00;;;;;;;6.72;4.35;;;179.80;2252.80;;;;;;5043424;28;20026;-71
2021/04/29 02:03:26;;;;;;;6.63;4.35;;;179.80;2252.80;;;;;;5042629;28;20021;-71
2021/04/29 02:05:52;;;;;;;9.25;5.57;;;179.80;2252.80;;;;;;5040346;28;20430;-72
2021/04/29 02:08:18;;;;;;;8.80;5.60;;;179.70;2252.80;;;;;;5039981;28;20056;-70
2021/04/29 02:10:44;;;;;;;8.77;5.13;;;179.70;2252.80;;;;;;5040191;28;20116;-72
2021/04/29 02:13:13;;;;;;;8.63;5.40;;;179.70;2252.80;;;;;;5039524;28;20411;-70
2021/04/29 02:15:44;;;;;;;10.45;5.85;;;179.70;2252.80;;;;;;5040167;28;20028;-72
2021/04/29 02:18:12;;;;;;;7.32;5.35;;;179.60;2252.80;;;;;;5040167;28;20066;-71
2021/04/29 02:20:42;;;;;;;9.93;5.93;;;179.60;2252.80;;;;;;5039755;28;20056;-70
2021/04/29 02:23:14;;;;;;;7.85;5.57;;;179.60;2252.80;;;;;;5039763;28;20029;-72
2021/04/29 02:25:42;;;;;;;10.80;5.50;;;179.60;2252.80;;;;;;5040089;28;20032;-71
2021/04/29 02:28:08;;;;;;;8.68;6.07;;;179.60;2252.80;;;;;;5039665;28;20025;-72
2021/04/29 02:30:34;;;;;;;9.55;5.88;;;179.60;2252.80;;;;;;5039811;28;20076;-71
2021/04/29 02:33:01;;;;;;;7.68;5.65;;;179.70;2252.80;;;;;;5039630;28;20029;-71
2021/04/29 02:35:28;;;;;;;7.38;4.88;;;179.60;2252.80;;;;;;5039803;28;20022;-71
2021/04/29 02:37:54;;;;;;;10.13;5.18;;;179.60;2252.80;;;;;;5039803;28;20032;-71
2021/04/29 02:40:22;;;;;;;9.63;5.85;;;179.60;2252.80;;;;;;5039461;28;20030;-71
2021/04/29 02:42:48;;;;;;;8.90;5.53;;;179.60;2252.80;;;;;;5039717;28;20026;-72
2021/04/29 02:45:16;;;;;;;7.50;5.43;;;179.60;2252.80;;;;;;5039318;28;20052;-72
2021/04/29 02:47:47;;;;;;;7.68;5.22;;;179.60;2252.80;;;;;;5039316;28;20045;-71
2021/04/29 02:50:18;;;;;;;6.78;4.97;;;179.50;2252.80;;;;;;5039454;28;20120;-72
2021/04/29 02:52:46;;;;;;;8.45;5.32;;;179.60;2252.80;;;;;;5039267;28;20021;-70
2021/04/29 02:55:13;;;;;;;9.02;5.35;;;179.50;2252.80;;;;;;5038642;28;20026;-71
2021/04/29 02:57:39;;;;;;;7.65;5.47;;;179.50;2252.80;;;;;;5039377;28;20021;-71
2021/04/29 03:00:13;;;;;;;9.25;5.05;;;179.50;2252.80;;;;;;5039070;28;20032;-73
2021/04/29 03:02:39;;;;;;;6.78;4.22;;;179.50;2252.80;;;;;;5039096;28;20061;-72
2021/04/29 03:05:07;;;;;;;7.90;4.88;;;179.50;2252.80;;;;;;5038964;28;20028;-72
2021/04/29 03:07:33;;;;;;;6.57;4.68;;;179.50;2252.80;;;;;;5038616;28;20022;-70
2021/04/29 03:09:59;;;;;;;8.45;5.32;;;179.50;2252.80;;;;;;5039062;28;20104;-71
2021/04/29 03:12:26;;;;;;;8.43;5.40;;;179.50;2252.80;;;;;;5039096;28;20025;-70
2021/04/29 03:14:52;;;;;;;7.88;5.00;;;179.50;2252.80;;;;;;5038278;28;20017;-73
2021/04/29 03:17:18;;;;;;;8.07;5.38;;;179.50;2252.80;;;;;;5038503;28;20153;-71
2021/04/29 03:19:44;;;;;;;11.63;5.30;;;179.50;2252.80;;;;;;5038378;28;20433;-74
2021/04/29 03:22:10;;;;;;;10.88;4.88;;;179.50;2252.80;;;;;;5037531;28;20029;-72
2021/04/29 03:24:36;;;;;;;9.27;5.18;;;179.50;2252.80;;;;;;5038862;28;20033;-72
2021/04/29 03:27:01;;;;;;;12.00;5.60;;;179.40;2252.80;;;;;;5038211;28;20022;-73
2021/04/29 03:29:27;;;;;;;8.13;5.15;;;179.40;2252.80;;;;;;5038247;28;20025;-72
2021/04/29 03:31:53;;;;;;;7.68;5.30;;;179.50;2252.80;;;;;;5038368;28;20037;-73
2021/04/29 03:34:19;;;;;;;8.00;5.32;;;179.50;2252.80;;;;;;5038626;28;20075;-72
2021/04/29 03:36:44;;;;;;;8.70;5.60;;;179.50;2252.80;;;;;;5038089;28;20107;-73
2021/04/29 03:39:10;;;;;;;8.40;4.93;;;179.50;2252.80;;;;;;5038559;28;20091;-74
2021/04/29 03:41:36;;;;;;;7.30;4.68;;;179.50;2252.80;;;;;;5038535;28;20117;-71
2021/04/29 03:44:02;;;;;;;7.57;5.20;;;179.50;2252.80;;;;;;5037670;28;20028;-74
2021/04/29 03:46:28;;;;;;;7.90;5.20;;;179.50;2252.80;;;;;;5037824;28;20510;-72
2021/04/29 03:48:53;;;;;;;10.00;5.68;;;179.50;2252.80;;;;;;5038193;28;20108;-73
2021/04/29 03:51:19;;;;;;;8.18;5.28;;;179.60;2252.80;;;;;;5037744;28;20037;-71
2021/04/29 03:53:45;;;;;;;8.32;4.95;;;179.60;2252.80;;;;;;5038343;28;20438;-72
2021/04/29 03:56:11;;;;;;;7.72;5.07;;;179.70;2252.80;;;;;;5037984;28;20030;-70
2021/04/29 03:58:36;;;;;;;7.80;5.15;;;179.80;2252.80;;;;;;5037284;28;20090;-69
2021/04/29 04:01:03;;;;;;;8.35;4.88;;;179.70;2252.80;;;;;;5037381;28;20029;-70
2021/04/29 04:03:28;;;;;;;10.55;4.97;;;179.70;2252.80;;;;;;5036704;28;20036;-71
2021/04/29 04:05:55;;;;;;;6.68;4.47;;;179.80;2252.80;;;;;;5036936;28;20025;-72
2021/04/29 04:08:20;;;;;;;8.02;4.40;;;179.80;2252.80;;;;;;5036681;28;20328;-72
2021/04/29 04:10:46;;;;;;;7.30;4.90;;;179.90;2252.80;;;;;;5036969;28;20083;-71
2021/04/29 04:13:17;;;;;;;7.03;4.72;;;180.00;2252.80;;;;;;5037695;28;20057;-70
2021/04/29 04:15:43;;;;;;;5.40;3.88;;;180.00;2252.80;;;;;;5037637;28;20029;-72
2021/04/29 04:18:09;;;;;;;7.22;4.85;;;180.10;2252.80;;;;;;5037619;28;20036;-71
2021/04/29 04:20:35;;;;;;;7.55;4.60;;;180.10;2252.80;;;;;;5037545;28;20331;-73
2021/04/29 04:23:00;;;;;;;7.68;3.90;;;204.80;2252.80;;;;;;5037011;28;20079;-72
2021/04/29 04:25:26;;;;;;;6.05;4.40;;;180.10;2252.80;;;;;;5037256;28;20104;-70
2021/04/29 04:27:52;;;;;;;7.93;4.55;;;204.80;2252.80;;;;;;5037382;28;20331;-71
2021/04/29 04:30:18;;;;;;;6.72;3.72;;;204.80;2252.80;;;;;;5037167;28;20124;-72
2021/04/29 04:32:44;;;;;;;7.53;4.25;;;204.90;2252.80;;;;;;5037167;28;20032;-71
2021/04/29 04:35:10;;;;;;;6.05;4.13;;;205.00;2252.80;;;;;;5037592;28;20022;-72
2021/04/29 04:37:36;;;;;;;5.07;3.50;;;205.10;2252.80;;;;;;5037309;28;20060;-71
2021/04/29 04:40:03;;;;;;;5.78;4.13;;;205.20;2252.80;;;;;;5037331;28;20087;-73
2021/04/29 04:42:29;;;;;;;5.03;3.55;;;205.30;2252.80;;;;;;5037313;28;20422;-71
2021/04/29 04:44:55;;;;;;;5.75;3.95;;;205.40;2252.80;;;;;;5036998;28;20030;-71
2021/04/29 04:47:21;;;;;;;6.82;4.07;;;205.60;2252.80;;;;;;5037221;28;20118;-73
2021/04/29 04:49:47;;;;;;;31.05;16.35;;;230.40;2252.80;;;;;;5037215;28;20466;-73
2021/04/29 04:52:12;;;;;;;76.03;43.33;;;230.60;2252.80;;;;;;5036906;28;20114;-73
2021/04/29 04:54:38;;;;;;;24.52;17.63;;;230.80;2252.80;;;;;;5037203;28;20025;-72
2021/04/29 04:57:04;;;;;;;10.05;7.97;;;231.10;2252.80;;;;;;5037058;28;20029;-71
2021/04/29 04:59:30;;;;;;;9.15;6.10;;;231.20;2252.80;;;;;;5036414;28;20416;-72
2021/04/29 05:01:56;;;;;;;9.65;6.55;;;231.30;2252.80;;;;;;5036827;28;20104;-72
2021/04/29 05:04:28;;;;;;;7.78;4.53;;;256.20;2252.80;;;;;;5037346;28;20044;-72
2021/04/29 05:06:57;;;;;;;8.40;5.10;;;256.20;2252.80;;;;;;5019360;28;20401;-73
2021/04/29 05:09:23;;;;;;;8.90;6.22;;;256.40;2252.80;;;;;;5037350;28;20029;-71
2021/04/29 05:11:49;;;;;;;7.97;5.40;;;256.60;2252.80;;;;;;5037220;28;20044;-73
2021/04/29 05:14:15;;;;;;;6.60;4.80;;;256.70;2252.80;;;;;;5036365;28;20040;-74
2021/04/29 05:16:43;;;;;;;7.78;4.57;;;256.80;2252.80;;;;;;5037271;28;20076;-71
2021/04/29 05:19:10;;;;;;;13.75;9.82;;;256.90;2252.80;;;;;;5036943;28;20120;-73
2021/04/29 05:21:36;;;;;;;152.50;83.05;;;281.60;2278.40;;;;;;5036602;28;20025;-71
2021/04/29 05:24:02;;;;;;;6.32;4.20;;;281.70;2278.40;;;;;;5036478;28;20322;-73
2021/04/29 05:26:28;;;;;;;11.15;7.05;;;281.80;2278.40;;;;;;5036691;28;20026;-71
2021/04/29 05:28:53;;;;;;;6.78;4.45;;;281.90;2278.40;;;;;;5036402;28;20476;-71
2021/04/29 05:31:19;;;;;;;7.13;5.38;;;281.90;2278.40;;;;;;5036582;28;20026;-71
2021/04/29 05:33:45;;;;;;;6.00;3.50;;;282.10;2278.40;;;;;;5036709;28;20032;-72
2021/04/29 05:36:11;;;;;;;8.52;3.10;;;282.20;2278.40;;;;;;5036401;28;20032;-73
2021/04/29 05:38:37;;;;;;;4.20;3.15;;;282.30;2278.40;;;;;;5036763;28;20030;-73
2021/04/29 05:41:03;;;;;;;4.80;3.05;;;282.40;2278.40;;;;;;5037182;28;20028;-73
2021/04/29 05:43:28;;;;;;;5.55;2.70;;;282.50;2278.40;;;;;;5040498;28;20041;-72
2021/04/29 05:45:54;;;;;;;4.50;2.38;;;307.20;2304.00;;;;;;5040470;28;20333;-71
2021/04/29 05:48:20;;;;;;;5.57;3.08;;;282.50;2278.40;;;;;;5040876;28;20103;-70
2021/04/29 05:50:46;;;;;;;7.20;3.00;;;282.50;2278.40;;;;;;5040468;28;20088;-71
2021/04/29 05:53:12;;;;;;;10.13;5.50;;;307.30;2304.00;;;;;;5040321;28;20057;-71
2021/04/29 05:55:38;;;;;;;6.75;3.85;;;307.30;2304.00;;;;;;5039684;28;20029;-71
2021/04/29 05:58:04;;;;;;;5.25;2.97;;;307.40;2304.00;;;;;;5040265;28;20067;-70
2021/04/29 06:00:29;;;;;;;5.68;3.45;;;307.50;2304.00;;;;;;5039687;28;20035;-70
2021/04/29 06:02:56;;;;;;;10.77;4.65;;;307.40;2304.00;;;;;;5039004;28;20025;-71
2021/04/29 06:05:25;;;;;;;10.48;3.80;;;307.20;2304.00;;;;;;5040374;28;20030;-71
2021/04/29 06:07:58;;;;;;;5.50;3.30;;;282.50;2278.40;;;;;;5040068;28;20331;-72
2021/04/29 06:10:25;;;;;;;4.97;3.00;;;307.20;2304.00;;;;;;5040037;28;20030;-71
2021/04/29 06:12:50;;;;;;;5.10;2.72;;;307.20;2304.00;;;;;;5040060;28;20025;-71
2021/04/29 06:15:17;;;;;;;7.07;3.80;;;307.30;2304.00;;;;;;5039944;28;20108;-72
2021/04/29 06:17:42;;;;;;;5.30;3.05;;;307.40;2304.00;;;;;;5039077;28;20334;-71
2021/04/29 06:20:09;;;;;;;4.40;2.40;;;307.50;2304.00;;;;;;5039847;28;20029;-71
2021/04/29 06:22:35;;;;;;;5.00;2.92;;;307.50;2304.00;;;;;;5040146;28;20057;-73
2021/04/29 06:25:01;;;;;;;5.90;3.05;;;307.50;2304.00;;;;;;5039395;28;20120;-72
2021/04/29 06:27:26;;;;;;;12.32;3.50;;;307.40;2304.00;;;;;;5039765;28;20025;-71
2021/04/29 06:29:52;;;;;;;6.10;3.45;;;307.40;2304.00;;;;;;5039658;28;20025;-71
2021/04/29 06:32:18;;;;;;;4.85;2.63;;;307.60;2304.00;;;;;;5039290;28;20063;-71
2021/04/29 06:34:45;;;;;;;5.13;3.00;;;307.70;2304.00;;;;;;5039842;28;20045;-71
2021/04/29 06:37:11;;;;;;;7.78;5.07;;;308.00;2304.00;;;;;;5038999;28;20029;-71
2021/04/29 06:39:37;;;;;;;6.68;5.60;;;308.00;2304.00;;;;;;5039192;28;20026;-72
2021/04/29 06:42:03;;;;;;;6.88;6.18;;;308.10;2304.00;;;;;;5039748;28;20035;-72
2021/04/29 06:44:30;;;;;;;5.80;4.03;;;308.00;2304.00;;;;;;5039410;28;20479;-72
2021/04/29 06:46:56;;;;;;;10.45;6.97;;;308.00;2304.00;;;;;;5038909;28;20061;-71
2021/04/29 06:49:22;;;;;;;7.70;5.40;;;332.80;2329.60;;;;;;5039553;28;20048;-71
2021/04/29 06:51:48;;;;;;;9.02;4.40;;;332.80;2329.60;;;;;;5038879;28;20069;-71
2021/04/29 06:54:13;;;;;;;6.93;4.57;;;332.90;2329.60;;;;;;5039337;28;20059;-72
2021/04/29 06:56:39;;;;;;;6.75;4.20;;;332.90;2329.60;;;;;;5039134;28;20084;-72
2021/04/29 06:59:06;;;;;;;5.88;3.50;;;332.90;2329.60;;;;;;5038824;28;20032;-73
2021/04/29 07:01:32;;;;;;;4.60;2.95;;;332.80;2329.60;;;;;;5039362;28;20116;-71
2021/04/29 07:03:58;;;;;;;6.15;2.60;;;332.90;2329.60;;;;;;5038827;28;20078;-71
2021/04/29 07:06:25;;;;;;;6.93;2.65;;;333.10;2329.60;;;;;;5038392;28;20030;-71
2021/04/29 07:08:51;;;;;;;5.80;3.17;;;333.10;2329.60;;;;;;5038352;28;20107;-71
2021/04/29 07:11:17;;;;;;;11.73;4.43;;;333.10;2329.60;;;;;;5038794;28;20120;-71
2021/04/29 07:13:44;;;;;;;10.63;3.28;;;333.20;2329.60;;;;;;5020787;28;20424;-71
2021/04/29 07:16:09;;;;;;;12.10;3.67;;;333.40;2329.60;;;;;;5038787;28;20343;-70
2021/04/29 07:18:35;;;;;;;7.65;2.92;;;333.40;2329.60;;;;;;5038456;28;20032;-71
2021/04/29 07:21:01;;;;;;;11.18;3.30;;;333.50;2329.60;;;;;;5038125;28;20025;-72
2021/04/29 07:23:27;;;;;;;9.45;3.00;;;333.60;2329.60;;;;;;5037441;28;20320;-71
2021/04/29 07:25:53;;;;;;;6.53;3.00;;;333.60;2329.60;;;;;;5037074;28;20017;-71
2021/04/29 07:28:20;;;;;;;5.00;2.40;;;333.70;2329.60;;;;;;5037037;28;20155;-72
2021/04/29 07:30:47;;;;;;;10.48;2.85;;;358.40;2329.60;;;;;;5037219;28;20423;-73
2021/04/29 07:33:13;;;;;;;6.10;2.75;;;358.60;2329.60;;;;;;5038188;28;20022;-71
2021/04/29 07:35:40;;;;;;;7.10;3.10;;;358.90;2329.60;;;;;;5037881;28;20026;-70
2021/04/29 07:38:06;;;;;;;6.55;2.53;;;358.90;2329.60;;;;;;5038515;28;20017;-73
2021/04/29 07:40:32;;;;;;;5.95;2.70;;;359.00;2329.60;;;;;;5037458;28;20025;-73
2021/04/29 07:42:59;;;;;;;4.53;2.88;;;359.20;2329.60;;;;;;5038232;28;20030;-73
2021/04/29 07:45:26;;;;;;;7.80;3.58;;;384.10;2329.60;;;;;;5038483;28;20025;-71
2021/04/29 07:47:52;;;;;;;7.13;2.67;;;384.30;2329.60;;;;;;5037789;28;20049;-73
2021/04/29 07:50:19;;;;;;;3.88;2.50;;;384.20;2329.60;;;;;;5036540;28;20090;-72
2021/04/29 07:52:45;;;;;;;5.70;2.38;;;384.00;2329.60;;;;;;5038032;28;20108;-71
2021/04/29 07:55:13;;;;;;;6.38;2.83;;;359.20;2329.60;;;;;;5036435;28;20029;-71
2021/04/29 07:57:39;;;;;;;7.18;3.40;;;358.90;2329.60;;;;;;5036701;28;20055;-71
2021/04/29 08:00:07;;;;;;;5.90;2.85;;;358.90;2329.60;;;;;;5037177;28;20025;-72
2021/04/29 08:02:33;;;;;;;5.65;2.90;;;359.10;2329.60;;;;;;5037027;28;20035;-73
2021/04/29 08:04:59;;;;;;;7.93;3.15;;;359.20;2329.60;;;;;;5036412;28;20032;-70
2021/04/29 08:07:26;;;;;;;6.60;3.58;;;359.20;2329.60;;;;;;5037091;28;20029;-71
2021/04/29 08:09:52;;;;;;;6.60;4.88;;;384.20;2329.60;;;;;;5036946;28;20032;-72
2021/04/29 08:12:18;;;;;;;11.32;4.00;;;384.20;2329.60;;;;;;5037264;28;20497;-74
2021/04/29 08:14:43;;;;;;;5.85;3.25;;;384.30;2329.60;;;;;;5035719;28;20105;-74
2021/04/29 08:17:09;;;;;;;9.63;3.17;;;384.50;2329.60;;;;;;5036750;28;20030;-71
2021/04/29 08:19:35;;;;;;;17.90;3.58;;;384.70;2329.60;;;;;;5036392;28;20032;-71
2021/04/29 08:22:02;;;;;;;6.93;3.55;;;384.70;2329.60;;;;;;5036167;28;20037;-74
2021/04/29 08:24:28;;;;;;;6.25;3.22;;;384.80;2329.60;;;;;;5036758;28;20017;-72
2021/04/29 08:26:54;;;;;;;7.22;3.30;;;384.70;2329.60;;;;;;5035156;28;20025;-72
2021/04/29 08:29:20;;;;;;;7.00;2.80;;;409.60;2355.20;;;;;;5036095;28;20095;-72
2021/04/29 08:31:46;;;;;;;9.93;3.20;;;409.70;2355.20;;;;;;5036695;28;20040;-70
2021/04/29 08:34:11;;;;;;;5.60;3.40;;;409.70;2355.20;;;;;;5034995;28;20032;-71
2021/04/29 08:36:37;;;;;;;6.80;3.10;;;409.80;2355.20;;;;;;5036450;28;20152;-71
2021/04/29 08:39:05;;;;;;;5.53;3.38;;;409.80;2355.20;;;;;;5037258;28;20025;-72
2021/04/29 08:41:32;;;;;;;6.30;3.40;;;409.70;2355.20;;;;;;5037397;28;20033;-72
2021/04/29 08:43:58;;;;;;;9.15;4.18;;;409.90;2355.20;;;;;;5036155;28;20304;-72
2021/04/29 08:46:24;;;;;;;8.65;3.63;;;410.00;2355.20;;;;;;5036846;28;20072;-73
2021/04/29 08:48:56;;;;;;;7.53;3.25;;;409.80;2355.20;;;;;;5037198;28;20053;-72
2021/04/29 08:51:23;;;;;;;9.43;4.50;;;409.80;2355.20;;;;;;5036286;28;20029;-74
2021/04/29 08:53:49;;;;;;;6.30;4.50;;;410.00;2355.20;;;;;;5037111;28;20326;-72
2021/04/29 08:56:22;;;;;;;8.85;3.58;;;410.10;2355.20;;;;;;5036500;28;20018;-72
2021/04/29 08:58:50;;;;;;;8.10;4.10;;;410.00;2355.20;;;;;;5036491;28;20450;-73
2021/04/29 09:01:16;;;;;;;6.22;3.30;;;410.30;2355.20;;;;;;5036549;28;20044;-74
2021/04/29 09:03:42;;;;;;;7.07;3.65;;;410.40;2355.20;;;;;;5036482;28;20026;-70
2021/04/29 09:06:08;;;;;;;8.65;3.95;;;435.30;2355.20;;;;;;5036509;28;20036;-71
2021/04/29 09:08:36;;;;;;;6.32;3.30;;;435.50;2355.20;;;;;;5037019;28;20044;-73
2021/04/29 09:11:20;;;;;;;7.15;2.88;;;435.70;2355.20;;;;;;5036551;28;20171;-73
2021/04/29 09:14:07;;;;;;;8.02;3.70;;;435.80;2355.20;;;;;;5037014;28;20372;-71
2021/04/29 09:16:42;;;;;;;10.70;3.72;;;436.00;2355.20;;;;;;5039559;28;20116;-70
2021/04/29 09:19:22;;;;;;;9.38;3.45;;;435.90;2355.20;;;;;;5040929;28;20029;-71
2021/04/29 09:21:48;;;;;;;7.85;3.67;;;436.00;2355.20;;;;;;5040321;28;20174;-73
2021/04/29 09:24:15;;;;;;;8.65;3.53;;;436.10;2355.20;;;;;;5040665;28;20030;-71
2021/04/29 09:26:44;;;;;;;9.50;3.58;;;460.80;2380.80;;;;;;5039952;28;20021;-73
2021/04/29 09:29:14;;;;;;;6.78;3.33;;;460.80;2380.80;;;;;;5040040;28;20434;-73
2021/04/29 09:31:47;;;;;;;9.00;3.97;;;461.10;2380.80;;;;;;5039436;28;20354;-73
2021/04/29 09:34:17;;;;;;;6.00;2.95;;;461.20;2380.80;;;;;;5039857;28;20025;-73
2021/04/29 09:36:44;;;;;;;6.80;3.53;;;461.20;2380.80;;;;;;5039913;28;20025;-73
2021/04/29 09:39:14;;;;;;;7.90;4.00;;;461.30;2380.80;;;;;;5040132;28;20034;-74
2021/04/29 09:41:46;;;;;;;7.65;3.30;;;461.40;2380.80;;;;;;5040330;28;20025;-72
2021/04/29 09:44:25;;;;;;;10.35;3.88;;;461.40;2380.80;;;;;;5040305;28;20036;-71
2021/04/29 09:47:03;;;;;;;7.18;3.83;;;461.30;2380.80;;;;;;5039723;28;20087;-70
2021/04/29 09:49:31;;;;;;;6.20;3.72;;;461.20;2380.80;;;;;;5039981;28;20029;-71
2021/04/29 09:51:59;;;;;;;6.03;3.95;;;461.20;2380.80;;;;;;5040191;28;20029;-71
2021/04/29 09:54:34;;;;;;;6.40;3.85;;;461.20;2380.80;;;;;;5039740;28;20029;-73
2021/04/29 09:57:04;;;;;;;4.90;3.45;;;461.30;2380.80;;;;;;5040482;28;20028;-71
2021/04/29 09:59:31;;;;;;;19.65;4.38;;;461.10;2380.80;;;;;;5040000;28;20026;-71
2021/04/29 10:01:59;;;;;;;7.95;3.50;;;460.90;2380.80;;;;;;5039837;28;20403;-72
2021/04/29 10:04:28;;;;;;;9.32;3.80;;;460.90;2380.80;;;;;;5039552;28;20032;-72
2021/04/29 10:06:56;;;;;;;7.13;3.80;;;460.90;2380.80;;;;;;5040209;28;20433;-72
2021/04/29 10:09:28;;;;;;;7.40;3.93;;;460.90;2380.80;;;;;;5039863;28;20025;-71
2021/04/29 10:12:07;;;;;;;10.50;4.22;;;461.10;2380.80;;;;;;5040246;28;20075;-70
2021/04/29 10:14:59;;;;;;;7.03;3.47;;;461.10;2380.80;;;;;;5039872;28;20083;-71
2021/04/29 10:17:25;;;;;;;7.85;3.53;;;461.30;2380.80;;;;;;4976965;28;20609;-71
2021/04/29 10:19:56;;;;;;;7.43;3.83;;;461.30;2380.80;;;;;;4977957;28;20113;-73
2021/04/29 10:22:26;;;;;;;10.82;4.15;;;461.10;2380.80;;;;;;4978011;28;20050;-71
2021/04/29 10:24:53;;;;;;;6.03;3.88;;;461.20;2380.80;;;;;;4978708;28;20026;-70
2021/04/29 10:27:26;;;;;;;6.40;4.18;;;461.30;2380.80;;;;;;4977870;28;20041;-71
2021/04/29 10:30:16;;;;;;;8.02;3.83;;;461.20;2380.80;;;;;;4978897;28;20034;-70
2021/04/29 10:32:42;;;;;;;5.85;3.55;;;461.30;2380.80;;;;;;4966707;28;20075;-71
2021/04/29 10:35:18;;;;;;;7.45;3.70;;;461.30;2380.80;;;;;;4959097;29;20130;-71
2021/04/29 10:38:01;;;;;;;7.55;3.58;;;461.60;2380.80;;;;;;4959410;29;20086;-72
2021/04/29 10:40:45;;;;;;;6.68;3.78;;;486.40;2380.80;;;;;;4958476;28;20074;-72
2021/04/29 10:43:10;;;;;;;6.90;3.33;;;486.50;2380.80;;;;;;4959268;29;20035;-72
2021/04/29 10:45:37;;;;;;;12.85;5.25;;;486.50;2380.80;;;;;;4958893;29;20031;-71
2021/04/29 10:48:10;;;;;;;8.15;3.70;;;486.40;2380.80;;;;;;4957362;29;20445;-71
2021/04/29 10:50:50;;;;;;;6.30;3.42;;;486.70;2380.80;;;;;;4958864;29;20035;-70
2021/04/29 10:53:30;;;;;;;7.38;3.60;;;487.10;2380.80;;;;;;4967836;28;20031;-72
2021/04/29 10:56:13;;;;;;;6.40;3.28;;;487.20;2380.80;;;;;;5038528;28;20025;-71
2021/04/29 10:58:39;;;;;;;5.85;3.78;;;512.10;2380.80;;;;;;5039244;28;20029;-71
2021/04/29 11:01:12;;;;;;;6.75;4.05;;;512.50;2380.80;;;;;;5038666;28;20025;-71
2021/04/29 11:03:42;;;;;;;10.15;3.47;;;512.30;2304.00;;;;;;5039195;28;20041;-71
2021/04/29 11:06:14;;;;;;;8.40;3.88;;;512.60;2380.80;;;;;;5038753;28;20434;-70
2021/04/29 11:08:48;;;;;;;8.07;3.83;;;512.90;2329.60;;;;;;5038755;28;20032;-71
2021/04/29 11:11:36;;;;;;;6.80;3.97;;;512.90;2278.40;;;;;;5039042;28;20171;-71
2021/04/29 11:14:13;;;;;;;6.60;3.88;;;512.80;2252.80;;;;;;5038627;28;20028;-70
2021/04/29 11:16:49;;;;;;;11.05;3.75;;;512.90;2227.20;;;;;;5038872;28;20034;-71
2021/04/29 11:19:38;;;;;;;10.80;3.92;;;537.70;2227.20;;;;;;5036869;28;20053;-69
2021/04/29 11:22:04;;;;;;;;;;;537.90;2150.40;;;;;;5036780;28;20108;-70
2021/04/29 11:24:47;;;;;;;9.95;3.92;;;538.10;2150.40;;;;;;5038362;28;19967;-70
2021/04/29 11:27:24;;;;;;;6.22;3.72;;;538.50;2099.20;;;;;;5038989;28;20420;-70
2021/04/29 11:29:54;;;;;;;10.13;4.00;;;563.40;2048.00;;;;;;5038584;28;20057;-70
2021/04/29 11:32:20;;;;;;;7.22;3.55;;;563.70;2048.00;;;;;;5038108;28;20346;-69
2021/04/29 11:34:48;;;;;;;5.47;3.83;;;563.50;1971.20;;;;;;5038238;28;20112;-71
2021/04/29 11:37:16;;;;;;;18.60;4.82;;;538.40;1945.60;;;;;;5038458;28;20036;-70
2021/04/29 11:39:43;;;;;;;6.53;3.72;;;538.20;2048.00;;;;;;5038628;28;20029;-71
2021/04/29 11:42:30;;;;;;;5.93;3.60;;;538.00;2022.40;;;;;;5020264;28;20461;-71
2021/04/29 11:45:13;;;;;;;6.82;4.50;;;512.80;2073.60;;;;;;5038614;28;20112;-69
2021/04/29 11:48:01;;;;;;;7.22;3.80;;;512.40;2124.80;;;;;;5038552;28;20057;-71
2021/04/29 11:50:32;;;;;;;17.40;5.33;;;487.30;2124.80;;;;;;5023907;28;20064;-71
2021/04/29 11:53:08;;;;;;;14.55;4.95;;;486.90;2201.60;;;;;;5038091;28;20255;-70
2021/04/29 11:55:36;;;;;;;11.02;4.70;;;486.60;2227.20;;;;;;5037570;28;20380;-71
2021/04/29 11:58:07;;;;;;;7.50;4.13;;;486.50;2227.20;;;;;;5037757;28;20028;-69
2021/04/29 12:00:42;;;;;;;8.02;4.25;;;461.70;2278.40;;;;;;5037698;28;20449;-70
2021/04/29 12:03:10;;;;;;;10.68;4.80;;;461.50;2304.00;;;;;;5038051;28;20048;-70
2021/04/29 12:05:44;;;;;;;11.35;5.18;;;461.50;2304.00;;;;;;5037353;28;20422;-71
2021/04/29 12:08:22;;;;;;;10.00;4.57;;;461.30;2329.60;;;;;;5038144;28;20033;-70
2021/04/29 12:10:49;;;;;;;;;;;461.30;2380.80;;;;;;5037754;28;20033;-70
2021/04/29 12:13:17;;;;;;;6.82;4.32;;;461.40;2380.80;;;;;;5037233;28;19912;-72
2021/04/29 12:15:44;;;;;;;7.13;4.93;;;461.50;2380.80;;;;;;5037468;28;20031;-71
2021/04/29 12:18:11;;;;;;;16.17;6.57;;;486.50;2380.80;;;;;;5037706;28;20033;-70
2021/04/29 12:20:37;;;;;;;9.20;5.67;;;537.60;2227.20;;;;;;5037987;28;20029;-70
2021/04/29 12:23:06;;;;;;;6.97;4.88;;;614.40;1894.40;;;;;;5036900;28;20393;-73